Terminal Aerodrome Forecast
Issued by NWS Memphis, TN

Home | Current Version | Previous Version | Text Only | Print | Product List | Glossary On
Versions: 1 2 3 4 5 6 7 8 9 10 11 12 13 14 15 16 17 18
188
FTUS44 KMEG 302328
TAFJBR
TAF
KJBR 302328Z 3100/3124 02005KT P6SM VCTS SCT050CB OVC250
     FM310600 03003KT P6SM VCSH BKN050 BKN120
     FM311400 12006KT P6SM VCTS BKN050CB BKN120=

USA.gov is the U.S. government's official web portal to all federal, state and local government web resources and services.